createdAt,value
2022-10-22T00:03:09.177Z,1001.107
2022-10-22T00:23:08.018Z,1001.133
2022-10-22T00:43:07.217Z,1001.415
2022-10-22T01:03:08.059Z,1001.377
2022-10-22T01:23:07.860Z,1001.314
2022-10-22T01:43:07.786Z,1001.245
2022-10-22T02:03:08.550Z,1001.019
2022-10-22T02:23:07.435Z,1000.867
2022-10-22T02:43:07.232Z,1000.984
2022-10-22T03:03:09.142Z,1001.066
2022-10-22T03:23:07.912Z,1001.361
2022-10-22T03:43:07.273Z,1001.482
2022-10-22T04:03:09.052Z,1001.734
2022-10-22T04:23:08.005Z,1001.808
2022-10-22T04:43:07.937Z,1001.768
2022-10-22T05:03:08.718Z,1001.751
2022-10-22T05:23:07.544Z,1001.838
2022-10-22T05:43:07.303Z,1002.103
2022-10-22T06:03:08.191Z,1002.367
2022-10-22T06:23:08.069Z,1002.504
2022-10-22T06:43:07.848Z,1002.679
2022-10-22T07:03:08.663Z,1002.92
2022-10-22T07:23:08.047Z,1003.194
2022-10-22T07:43:07.845Z,1003.451
2022-10-22T08:03:08.696Z,1003.554
2022-10-22T08:23:07.815Z,1003.653
2022-10-22T08:43:07.569Z,1003.931
2022-10-22T09:03:08.385Z,1004.008
2022-10-22T09:23:07.290Z,1004.062
2022-10-22T09:43:07.228Z,1004.236
2022-10-22T10:03:09.304Z,1004.419
2022-10-22T10:23:07.244Z,1004.5
2022-10-22T10:43:07.111Z,1004.702
2022-10-22T11:03:08.919Z,1004.787
2022-10-22T11:23:22.994Z,1004.86
2022-10-22T11:43:07.432Z,1004.931
2022-10-22T12:03:08.179Z,1004.963
2022-10-22T12:23:07.976Z,1005.137
2022-10-22T12:43:07.957Z,1005.121
2022-10-22T13:03:08.859Z,1005.152
2022-10-22T13:23:07.656Z,1005.161
2022-10-22T13:43:07.798Z,1005.111
2022-10-22T14:03:08.655Z,1005.165
2022-10-22T14:23:07.835Z,1005.313
2022-10-22T16:23:08.062Z,1005.961
2022-10-22T16:43:07.906Z,1006.183
2022-10-22T17:03:08.550Z,1006.257
2022-10-22T17:23:07.257Z,1006.463
2022-10-22T17:43:08.044Z,1006.567
2022-10-22T18:03:08.722Z,1006.724
2022-10-22T18:23:07.501Z,1006.862
2022-10-22T18:43:07.146Z,1006.912
2022-10-22T19:03:08.826Z,1006.897
2022-10-22T19:23:07.529Z,1006.957
2022-10-22T19:43:07.203Z,1006.957
2022-10-22T20:03:08.893Z,1006.976
2022-10-22T20:23:07.702Z,1007.041
2022-10-22T20:43:12.829Z,1007.054
2022-10-22T21:03:08.408Z,1007.052
2022-10-22T21:23:07.093Z,1006.965
2022-10-22T21:43:07.768Z,1006.855
2022-10-22T22:03:08.808Z,1007.034
2022-10-22T22:23:07.511Z,1007.064
2022-10-22T22:43:07.130Z,1006.903
2022-10-22T23:03:08.690Z,1006.881
2022-10-22T23:23:07.334Z,1006.74
2022-10-22T23:43:07.903Z,1006.631
